METAR AND TAF INFORMATION
METAR FOR SAME
ADDS - METARS form results

(1005 UTC 21 January 2019)
Data provider http://aviationweather.gov/metar/data/
 
METAR text: SAME 211000Z 00000KT CAVOK 20/16 Q1013
Conditions at: SAME (MENDOZA/EL PLUME, AR) observed 1000 UTC 21 January 2019
Temperature: 20.0°C (68°F)
Dewpoint: 16.0°C (61°F) [RH = 78%]
Pressure (altimeter): 29.91 inches Hg (1013.0 mb)
Winds: calm
Visibility: 6 or more miles (10+ km)
Ceiling: ceiling and visibility are OK
Clouds: unknown
Weather: no significant weather observed at this time

Forecast for: SAME (MENDOZA/EL PLUME, AR)
Text: TAF SAME 210500Z 2106/2206 05005KT CAVOK TX34/2120Z TN16/2110Z
Forecast period: 0600 UTC 21 January 2019 to 0600 UTC 22 January 2019
Forecast type: FROM: standard forecast or significant change
Winds: from the NE (50 degrees) at 6 MPH (5 knots; 2.6 m/s)
Visibility: 6 or more miles 10+ km)
Ceiling: unknown
Clouds: missing
Weather: no significant weather forecast for this period

 AIRPORT MAP

 RUNWAY INFORMATION

 AIRPORT FREQUENCIES
Type ATIS Name ATIS Frequency 114.9 MHZ
Type GND Name GND Frequency 121.95 MHZ
Type TCA Name MENDOZA CO Frequency 124.2 MHZ
Type TWR Name MENDOZA AP Frequency 119.9 MHZ

 AIRPORT NEAR NAVIGATION AIDS
Type VOR-DME Name Mendoza Frequency 114900 KHZ



Powered by Virtual Airlines Manager [v2.6.2]